logo
App data

Jones On Fire

A high-speed 2-button infinite running game of kitty saving and flame evading! This is the prequel to Hot Tin Roof - see where the story of Jones and Franky begins.
Store | Hub | SteamDB | Site
Developer: Glass Bottom Games Publisher: Glass Bottom Games
Genre: Action, Casual, Indie, Racing
Languages: English
Tags: Runner (160), Cute (154), Cats (151), Side Scroller (148), Racing (145), Voxel (140), 3D Platformer (133), 2.5D (129), Casual (126), Perma Death (123), Arcade (122), Female Protagonist (116), Procedural Generation (116), Action (107), Survival (102), Family Friendly (92), Comedy (85), Retro (77), Singleplayer (71), Indie (69)
Category: Single-player, Steam Achievements, Steam Trading Cards
Release date: Mar 14, 2013
Price: $2.99
Old userscore: 63% Owners: 50,000 .. 100,000
Followers: 308
Peak concurrent players yesterday: 2
YouTube stats: 163 views and 4 comments for top 50 videos uploaded last week, 1 new videos uploaded yesterday.
Playtime total: 02:53 (average) 02:53 (median)

Steam Spy is still in beta, so expect major bugs.

Owners data:

Access restricted.

This feature is only available to users with special access rights. Sorry.

If you want to proceed, you need to register or log in first and then back Steam Spy on Patreon. Look for Indie or Pro pledge.

Don't forget to use the same email as on Steam Spy!

Audience in 2 weeks:

Access restricted.

This feature is only available to users with special access rights. Sorry.

If you want to proceed, you need to register or log in first and then back Steam Spy on Patreon. Look for Indie or Pro pledge.

Don't forget to use the same email as on Steam Spy!

Peak daily concurrent players:

CCU data courtesy of SteamDB. Used with permission.

Hourly concurrent players:

Followers over time

Access restricted.

This feature is only available to users with special access rights. Sorry.

If you want to proceed, you need to register or log in first and then back Steam Spy on Patreon. Look for Indie or Pro pledge.

Don't forget to use the same email as on Steam Spy!

Views for top 50 videos on YouTube for this game:

Games similar to this one:

# Game Release date
Price
Score rank
(Userscore / Metascore)
Owners
Players
Playtime (Median)
1 Cosmic Leap Mar 17, 2016 $0.99N/A (N/A)20,000 .. 50,0000%00:00 (00:00)
2 Cube Land Arena Mar 29, 2016 $0.99N/A (N/A)20,000 .. 50,0000%00:00 (00:00)
3 Godus Wars Feb 3, 2016 $14.99N/A (N/A)50,000 .. 100,0000%00:00 (00:00)
4 Hero Quest: Tower Conflict Apr 13, 2016 $0.99N/A (N/A)200,000 .. 500,0000%00:00 (00:00)
5 Bell Ringer Mar 6, 2016 $6.99N/A (N/A)200,000 .. 500,0000%00:00 (00:00)
6 CrazyCars3D Mar 28, 2016 $2.99N/A (N/A)50,000 .. 100,0000%00:00 (00:00)
7 PERFECT ANGLE: The puzzle game based on optical illusions Dec 22, 2015 $2.49N/A (N/A)50,000 .. 100,0000%00:00 (00:00)
8 StarsOne Apr 8, 2016 $9.99N/A (N/A)0 .. 20,0000%00:00 (00:00)
9 Tiny Guardians Mar 24, 2016 $9.99N/A (N/A)0 .. 20,0000%00:00 (00:00)
10 OPUS: The Day We Found Earth Apr 21, 2016 $8.99N/A (N/A)50,000 .. 100,0000%00:00 (00:00)
11 Doodle Kingdom Jun 9, 2016 $8.99N/A (N/A)50,000 .. 100,0000%00:00 (00:00)
12 Wrath of Anna Apr 2, 2018 $19.99N/A (N/A)50,000 .. 100,0000%00:00 (00:00)
13 10 Second Ninja X Jul 19, 2016 $9.99N/A (N/A)200,000 .. 500,0000.73%00:07 (00:02)
14 Moonstone Tavern - A Fantasy Tavern Sim! May 13, 2016 $7.99N/A (N/A)20,000 .. 50,0000%00:00 (00:00)
15 Empire of the Gods May 13, 2008 $1.99N/A (N/A)20,000 .. 50,0000%00:00 (00:00)
16 Heavy Gear Assault Feb 10, 2017 $39.99N/A (N/A)20,000 .. 50,0000%00:00 (00:00)
17 Share May 3, 2016 $0.99N/A (N/A)20,000 .. 50,0000%00:00 (00:00)
18 Cosmochoria Apr 27, 2015 $9.99N/A (N/A)20,000 .. 50,0000%00:00 (00:00)
19 Rabbit Hole 3D: Steam Edition Apr 25, 2014 $2.99N/A (N/A)50,000 .. 100,0000%00:00 (00:00)
20 Arson and Plunder: Unleashed Sep 25, 2015 $4.99N/A (N/A)20,000 .. 50,0000%00:00 (00:00)
21 ReignMaker Apr 16, 2014 $14.99N/A (N/A)50,000 .. 100,0000%00:00 (00:00)
22 Road Not Taken Aug 5, 2014 $14.99N/A (N/A/75%)50,000 .. 100,0000%00:00 (00:00)
23 Autocraft Sep 20, 2017 $9.99N/A (N/A)20,000 .. 50,0000%00:00 (00:00)
24 Dreaming Sarah Mar 12, 2015 $5.99N/A (N/A)100,000 .. 200,0000%00:00 (00:00)
25 Volt Apr 14, 2014 $0.99N/A (N/A)100,000 .. 200,0000%00:00 (00:00)
26 Frederic: Evil Strikes Back May 23, 2014 $7.99N/A (N/A)50,000 .. 100,0000%00:00 (00:00)
27 Vitrum Sep 25, 2012 $1.99N/A (N/A)20,000 .. 50,0000%00:00 (00:00)
28 Rhythm Destruction Jun 16, 2014 $4.99N/A (N/A)50,000 .. 100,0000%00:00 (00:00)
29 Three Dead Zed Jul 7, 2014 $5.99N/A (N/A)50,000 .. 100,0000%00:00 (00:00)
30 Boson X Sep 15, 2014 $2.99N/A (N/A)50,000 .. 100,0000%00:00 (00:00)
31 Starship Corporation May 3, 2018 $19.99N/A (N/A)50,000 .. 100,0000%00:00 (00:00)
32 Pulstar Jun 11, 2014 $1.99N/A (N/A)20,000 .. 50,0000%00:00 (00:00)
33 Uriel's Chasm Sep 12, 2014 $4.99N/A (N/A)200,000 .. 500,0000%00:00 (00:00)
34 Munin Jun 10, 2014 $4.99N/A (N/A/68%)200,000 .. 500,0000%00:00 (00:00)
35 New Retro Arcade: Neon Nov 19, 2019 $19.99N/A (N/A)0 .. 20,0000%00:00 (00:00)
36 Dinosaur Forest May 17, 2017 $1.99N/A (N/A)50,000 .. 100,0000%00:00 (00:00)
37 Scanner Sombre Apr 26, 2017 $5.99N/A (N/A/67%)100,000 .. 200,0000%00:00 (00:00)
38 Joana's Life Sep 1, 2016 $5.99N/A (N/A)50,000 .. 100,0000%00:00 (00:00)
39 Star Drifter Jun 1, 2016 $0.99N/A (N/A)200,000 .. 500,0000%00:00 (00:00)
40 Pinkman Jan 16, 2017 $0.99N/A (N/A)0 .. 20,0000%00:00 (00:00)
41 Call Of The Mighty Warriors Jun 2, 2016 $0.99N/A (N/A)20,000 .. 50,0000%00:00 (00:00)
42 It Comes Around - A Kinetic Novel Sep 29, 2016 $2.99N/A (N/A)20,000 .. 50,0000%00:00 (00:00)
43 Karma Miwa Aug 12, 2016 $0.99N/A (N/A)20,000 .. 50,0000%00:00 (00:00)
44 Starship Annihilator Sep 2, 2016 $0.99N/A (N/A)20,000 .. 50,0000%00:00 (00:00)
45 Super Duper Party Pooper Jun 6, 2016 $0.99N/A (N/A/40%)100,000 .. 200,0000%00:00 (00:00)
46 Deisim Dec 19, 2016 $7.99N/A (N/A)20,000 .. 50,0000%00:00 (00:00)
47 DashBored Jun 13, 2016 $4.99N/A (N/A)20,000 .. 50,0000%00:00 (00:00)
48 mr.President Prologue Episode Sep 20, 2016 $0.99N/A (N/A)20,000 .. 50,0000%00:00 (00:00)
49 Robot Legions Reborn Jul 19, 2016 $2.99N/A (N/A)20,000 .. 50,0000%00:00 (00:00)
50 NORTH Apr 27, 2016 $1.99N/A (N/A)100,000 .. 200,0000%00:00 (00:00)
51 Bohemian Killing Jul 21, 2016 $12.99N/A (N/A/55%)0 .. 20,0000%00:00 (00:00)
52 Ninja Pizza Girl Sep 30, 2015 $6.99N/A (N/A/82%)50,000 .. 100,0000%00:00 (00:00)
53 Curses 'N Chaos Aug 18, 2015 $9.99N/A (N/A)20,000 .. 50,0000%00:00 (00:00)
54 Horizon Shift May 29, 2015 $4.99N/A (N/A)100,000 .. 200,0000%00:00 (00:00)
55 Back to Bed Aug 6, 2014 $5.99N/A (N/A)500,000 .. 1,000,0001.56%00:06 (00:02)
56 Instant Dungeon! Nov 25, 2014 $1.99N/A (N/A)0 .. 20,0000%00:00 (00:00)
57 The Masterplan Jun 4, 2015 $19.99N/A (N/A/68%)100,000 .. 200,0000%00:00 (00:00)
58 Super Life of Pixel Dec 20, 2018 $9.99N/A (N/A)20,000 .. 50,0000%00:00 (00:00)
59 Amazing Princess Sarah Aug 18, 2014 $4.99N/A (N/A)0 .. 20,0000%00:00 (00:00)
60 Pix the Cat Jan 29, 2015 $9.99N/A (N/A/77%)50,000 .. 100,0000%00:00 (00:00)
61 Velocibox Sep 8, 2014 $4.99N/A (N/A)50,000 .. 100,0000%00:00 (00:00)
62 Tulpa Jan 29, 2015 $2.99N/A (N/A)50,000 .. 100,0000%00:00 (00:00)
63 Squishy the Suicidal Pig Oct 23, 2014 $5.99N/A (N/A)200,000 .. 500,0000%00:00 (00:00)
64 A Druid's Duel Feb 25, 2015 $7.99N/A (N/A/70%)0 .. 20,0000%00:00 (00:00)
65 Great Permutator Sep 15, 2014 $6.99N/A (N/A)20,000 .. 50,0000%00:00 (00:00)
66 Concursion Jun 6, 2014 $4.99N/A (N/A/66%)20,000 .. 50,0000%00:00 (00:00)
67 Chariot Nov 12, 2014 $14.99N/A (N/A/76%)50,000 .. 100,0000%00:00 (00:00)
68 Fancy Skulls Jun 16, 2014 $8.99N/A (N/A)20,000 .. 50,0000%00:00 (00:00)
69 Pixel Gladiator Sep 8, 2017 $4.99N/A (N/A)20,000 .. 50,0000%00:00 (00:00)
70 Three Kingdoms The Last Warlord | 三國志漢末霸業 May 26, 2017 $16.99N/A (N/A)20,000 .. 50,0000%00:00 (00:00)
71 Snake Pass Mar 28, 2017 $4.99N/A (N/A/71%)200,000 .. 500,0000%00:00 (00:00)
72 GORN Jul 18, 2019 $19.99N/A (N/A/85%)200,000 .. 500,0000%00:00 (00:00)
73 Wayout Nov 4, 2016 $0.99N/A (N/A)50,000 .. 100,0000%00:00 (00:00)
74 Guns of Icarus Alliance Mar 31, 2017 $4.99N/A (N/A)50,000 .. 100,0000.62%15:07 (05:02)
75 Zolg Dec 2, 2016 $0.99N/A (N/A)20,000 .. 50,0000%00:00 (00:00)
76 The Archotek Project Apr 28, 2017 $0.99N/A (N/A)200,000 .. 500,0000%00:00 (00:00)
77 99Vidas Dec 22, 2016 $12.99N/A (N/A/69%)50,000 .. 100,0000%00:00 (00:00)
78 Witch It May 31, 2017 $14.99N/A (N/A)200,000 .. 500,0000%00:00 (00:00)
79 Introvert Quest Mar 15, 2017 $4.99N/A (N/A)100,000 .. 200,0000%00:00 (00:00)
80 Child Phobia: Nightcoming Fears Dec 20, 2016 $1.99N/A (N/A)20,000 .. 50,0000%00:00 (00:00)
81 BoomTown! Deluxe Oct 14, 2016 $1.99N/A (N/A)20,000 .. 50,0000%00:00 (00:00)
82 Mistwood Heroes Dec 30, 2016 $0.99N/A (N/A)20,000 .. 50,0000%00:00 (00:00)
83 Beyond Sol Jun 30, 2015 $9.99N/A (N/A/83%)0 .. 20,0000%00:00 (00:00)
84 Bloody Streets Mar 12, 2015 $2.44N/A (N/A)20,000 .. 50,0000%00:00 (00:00)
85 Copy Kitty Apr 19, 2018 $14.99N/A (N/A)0 .. 20,0000%00:00 (00:00)
86 Chronicles of a Dark Lord: Episode 1 Tides of Fate Complete Dec 19, 2014 N/AN/A (N/A)50,000 .. 100,0000%00:00 (00:00)
87 BlastZone 2 Feb 19, 2015 $9.99N/A (N/A)20,000 .. 50,0000%00:00 (00:00)
88 Predestination Feb 26, 2019 $29.99N/A (N/A)0 .. 20,0000%00:00 (00:00)
89 Reflections Jun 26, 2015 $9.99N/A (N/A)0 .. 20,0000%00:00 (00:00)
90 Tomb of Tyrants Jun 25, 2015 $7.99N/A (N/A)20,000 .. 50,0000%00:00 (00:00)
91 Farlight Explorers Feb 1, 2019 $14.99N/A (N/A)0 .. 20,0000%00:00 (00:00)
92 Glorkian Warrior: The Trials Of Glork Mar 24, 2015 $3.99N/A (N/A)20,000 .. 50,0000%00:00 (00:00)
93 Porcunipine May 21, 2015 $9.99N/A (N/A)20,000 .. 50,0000%00:00 (00:00)
94 It came from space and ate our brains Mar 19, 2015 $14.99N/A (N/A)200,000 .. 500,0000%00:00 (00:00)
95 Star Horizon May 15, 2020 $9.99N/A (N/A)0 .. 20,0000%00:00 (00:00)
96 Disillusions Manga Horror Apr 6, 2013 $0.99N/A (N/A)20,000 .. 50,0000%00:00 (00:00)
97 Dwarf Tower May 5, 2014 $0.99N/A (N/A)20,000 .. 50,0000%00:00 (00:00)
98 Rats - Time is running out! Aug 19, 2015 $4.99N/A (N/A)20,000 .. 50,0000%00:00 (00:00)
99 Sky Mercenaries Dec 16, 2014 $3.99N/A (N/A)20,000 .. 50,0000%00:00 (00:00)
100 BIT.TRIP BEAT Nov 2, 2010 $9.99N/A (N/A)200,000 .. 500,0000%00:00 (00:00)
101 Puddle Nov 9, 2012 $7.99N/A (N/A)100,000 .. 200,0000%00:00 (00:00)
102 Super Splatters Jun 26, 2013 N/AN/A (N/A/73%)50,000 .. 100,0000%00:00 (00:00)
103 Papo & Yo Apr 18, 2013 $14.99N/A (N/A/70%)200,000 .. 500,0000%00:00 (00:00)
104 SOL: Exodus Jan 25, 2012 $7.99N/A (N/A/57%)50,000 .. 100,0000%00:00 (00:00)
105 Bad Hotel Oct 16, 2013 $4.99N/A (N/A)50,000 .. 100,0000%00:00 (00:00)
106 Titan Attacks! Feb 3, 2012 $4.99N/A (N/A)50,000 .. 100,0000%00:00 (00:00)
107 Godus At some point $14.99N/A (N/A)50,000 .. 100,0000%00:00 (00:00)
108 Tales From Space: Mutant Blobs Attack Aug 15, 2012 $2.49N/A (N/A/83%)100,000 .. 200,0000%00:00 (00:00)
109 Wake At some point $4.99N/A (N/A)0 .. 20,0000%00:00 (00:00)
110 Party of Sin Dec 13, 2012 $5.99N/A (N/A)50,000 .. 100,0000%00:00 (00:00)
111 Zack Zero Apr 29, 2013 $2.99N/A (N/A)50,000 .. 100,0000%00:00 (00:00)
112 Home Jun 1, 2012 $4.99N/A (N/A/69%)200,000 .. 500,0000%00:00 (00:00)
113 Element4l May 24, 2013 $8.99N/A (N/A/77%)50,000 .. 100,0000%00:00 (00:00)
114 Ultratron Mar 18, 2013 $9.99N/A (N/A)100,000 .. 200,0000%00:00 (00:00)
115 Critter Crunch Sep 11, 2012 $6.99N/A (N/A)20,000 .. 50,0000%00:00 (00:00)
116 Cargo Commander Nov 1, 2012 $1.99N/A (N/A)100,000 .. 200,0000%00:00 (00:00)
117 Polyball Dec 1, 2017 $14.99N/A (N/A)100,000 .. 200,0000%00:00 (00:00)
118 Home is Where One Starts... May 12, 2015 $2.99N/A (N/A)20,000 .. 50,0000%00:00 (00:00)
119 Mysterious Space May 15, 2015 $10N/A (N/A)0 .. 20,0000%00:00 (00:00)
120 Big Action Mega Fight! Jan 12, 2016 $1.99N/A (N/A)20,000 .. 50,0000%00:00 (00:00)
121 The Adventures of Mr. Bobley Jun 30, 2015 $0.99N/A (N/A)50,000 .. 100,0000%00:00 (00:00)
122 Gryphon Knight Epic Aug 20, 2015 $6.99N/A (N/A/55%)20,000 .. 50,0000%00:00 (00:00)
123 Monument Jun 5, 2015 $3.99N/A (N/A)20,000 .. 50,0000%00:00 (00:00)
124 Canabalt Apr 30, 2015 $2.99N/A (N/A)20,000 .. 50,0000%00:00 (00:00)
125 Fortify Apr 8, 2016 $4.99N/A (N/A)0 .. 20,0000%00:00 (00:00)
126 Hare In The Hat Apr 1, 2015 $1.99N/A (N/A)50,000 .. 100,0000%00:00 (00:00)
127 Untamed: Life Of A Cougar Aug 27, 2015 $14.99N/A (N/A)0 .. 20,0000%00:00 (00:00)
128 Luna Sky Oct 2, 2015 $12.99N/A (N/A)50,000 .. 100,0000%00:00 (00:00)
129 Action Alien Jun 26, 2015 $5.99N/A (N/A)50,000 .. 100,0000%00:00 (00:00)
130 Broken Bots Jun 7, 2016 $6.99N/A (N/A)0 .. 20,0000%00:00 (00:00)
131 Leo’s Fortune - HD Edition Sep 8, 2015 $6.99N/A (N/A)0 .. 20,0000%00:00 (00:00)
132 Pixel Star May 22, 2015 $2.99N/A (N/A)20,000 .. 50,0000%00:00 (00:00)
133 Centauri Sector Jun 24, 2015 $4.99N/A (N/A)20,000 .. 50,0000%00:00 (00:00)
134 Press X to Not Die Oct 6, 2017 $2.99N/A (N/A)50,000 .. 100,0000%00:00 (00:00)
135 none Nov 4, 2015 N/AN/A (N/A)20,000 .. 50,0000%00:00 (00:00)
136 1,000 Heads Among the Trees Dec 11, 2015 $4.99N/A (N/A)100,000 .. 200,0000%00:00 (00:00)
137 Earth Overclocked Dec 4, 2015 $4.99N/A (N/A)20,000 .. 50,0000%00:00 (00:00)
138 Dream Factory Nov 2, 2015 $9.99N/A (N/A)20,000 .. 50,0000%00:00 (00:00)
139 Redemption: Eternal Quest Aug 28, 2015 $1.99N/A (N/A)100,000 .. 200,0000%00:00 (00:00)
140 Fist Slash: Of Ultimate Fury Dec 10, 2015 $3.99N/A (N/A)0 .. 20,0000%00:00 (00:00)
141 Void Invaders Aug 14, 2015 $2.99N/A (N/A)20,000 .. 50,0000%00:00 (00:00)
142 The Purring Quest Nov 12, 2015 $1.09N/A (N/A)50,000 .. 100,0000%00:00 (00:00)
143 Blaster Shooter GunGuy! Aug 10, 2015 $1.99N/A (N/A)50,000 .. 100,0000%00:00 (00:00)
144 Perraw - FPS Clone War Alpha Jan 29, 2016 $0.99N/A (N/A)0 .. 20,0000%00:00 (00:00)
145 Wild Island Quest Sep 4, 2015 $1.99N/A (N/A)50,000 .. 100,0000%00:00 (00:00)
146 Days Under Custody Nov 23, 2015 $4.99N/A (N/A)20,000 .. 50,0000%00:00 (00:00)
147 Moonbase 332 May 20, 2015 $4.99N/A (N/A)20,000 .. 50,0000%00:00 (00:00)
148 Dead In Bermuda Aug 27, 2015 $14.99N/A (N/A)20,000 .. 50,0000%00:00 (00:00)
149 Kitchen Simulator 2015 Sep 4, 2015 $0.69N/A (N/A)50,000 .. 100,0000%00:00 (00:00)
150 Aviary Attorney Dec 21, 2015 $14.99N/A (N/A/77%)50,000 .. 100,0000%00:00 (00:00)
151 Montague's Mount Nov 19, 2013 $4.99N/A (N/A/39%)20,000 .. 50,0000%00:00 (00:00)
152 The Novelist Dec 10, 2013 $4.99N/A (N/A/66%)100,000 .. 200,0000%00:00 (00:00)
153 Ballpoint Universe - Infinite Dec 17, 2013 $3.99N/A (N/A)50,000 .. 100,0000%00:00 (00:00)
154 Knytt Underground Oct 25, 2013 $6.99N/A (N/A)50,000 .. 100,0000%00:00 (00:00)
155 STARWHAL Sep 29, 2014 $11.99N/A (N/A)50,000 .. 100,0000%00:00 (00:00)
156 Escape Goat Jun 14, 2012 $4.99N/A (N/A)20,000 .. 50,0000%00:00 (00:00)
157 Full Bore May 6, 2014 $14.99N/A (N/A/72%)20,000 .. 50,0000%00:00 (00:00)
158 Constant C Mar 7, 2014 $9.99N/A (N/A/60%)0 .. 20,0000%00:00 (00:00)
159 Montas Mar 24, 2014 $9.99N/A (N/A)0 .. 20,0000%00:00 (00:00)
160 Solar Flux Oct 24, 2013 $9.99N/A (N/A)100,000 .. 200,0000%00:00 (00:00)
161 10 Second Ninja Mar 5, 2014 $1.99N/A (N/A/72%)50,000 .. 100,0000%00:00 (00:00)
162 FOTONICA Nov 6, 2014 $14.99N/A (N/A/71%)50,000 .. 100,0000%00:00 (00:00)
163 Labyrinthine Dreams May 26, 2015 $1.99N/A (N/A)20,000 .. 50,0000%00:00 (00:00)
164 Gentlemen! Nov 5, 2013 $4.99N/A (N/A)20,000 .. 50,0000%00:00 (00:00)
165 Intake Nov 5, 2013 $9.99N/A (N/A)20,000 .. 50,0000%00:00 (00:00)
166 Survivor Squad Nov 8, 2013 $2.99N/A (N/A)100,000 .. 200,0000%00:00 (00:00)
167 Poöf Nov 8, 2013 $6.99N/A (N/A)20,000 .. 50,0000%00:00 (00:00)

Tags over time:

Access restricted.

This feature is only available to users with special access rights. Sorry.

If you want to proceed, you need to register or log in first and then back Steam Spy on Patreon. Look for Indie or Pro pledge.

Don't forget to use the same email as on Steam Spy!

Owners of this game also own:

Access restricted.

This feature is only available to users with special access rights. Sorry.

If you want to proceed, you need to register or log in first and then back Steam Spy on Patreon. Look for Indie or Pro pledge.

Don't forget to use the same email as on Steam Spy!

Playtime distribution:

Access restricted.

This feature is only available to users with special access rights. Sorry.

If you want to proceed, you need to register or log in first and then back Steam Spy on Patreon. Look for Indie or Pro pledge.

Don't forget to use the same email as on Steam Spy!

Playtime (2 weeks):

Access restricted.

This feature is only available to users with special access rights. Sorry.

If you want to proceed, you need to register or log in first and then back Steam Spy on Patreon. Look for Indie or Pro pledge.

Don't forget to use the same email as on Steam Spy!

User reviews:

Login required.

Please register or log in to see this information.